sensor_id;sensor_type;location;lat;lon;timestamp;temperature;humidity
69393;SHT31;56582;44.624;20.378;2023-05-07T00:01:49;14.56;69.84
69393;SHT31;56582;44.624;20.378;2023-05-07T00:04:15;14.63;70.32
69393;SHT31;56582;44.624;20.378;2023-05-07T00:06:40;14.49;70.87
69393;SHT31;56582;44.624;20.378;2023-05-07T00:09:06;14.42;71.16
69393;SHT31;56582;44.624;20.378;2023-05-07T00:11:32;14.40;71.47
69393;SHT31;56582;44.624;20.378;2023-05-07T00:13:58;14.33;71.66
69393;SHT31;56582;44.624;20.378;2023-05-07T00:16:24;14.36;71.29
69393;SHT31;56582;44.624;20.378;2023-05-07T00:18:49;14.42;70.70
69393;SHT31;56582;44.624;20.378;2023-05-07T00:21:15;14.30;71.07
69393;SHT31;56582;44.624;20.378;2023-05-07T00:23:41;14.32;72.08
69393;SHT31;56582;44.624;20.378;2023-05-07T00:26:06;14.33;70.54
69393;SHT31;56582;44.624;20.378;2023-05-07T00:28:32;14.38;71.32
69393;SHT31;56582;44.624;20.378;2023-05-07T00:30:57;14.32;71.13
69393;SHT31;56582;44.624;20.378;2023-05-07T00:33:23;14.17;72.30
69393;SHT31;56582;44.624;20.378;2023-05-07T00:35:48;14.15;71.78
69393;SHT31;56582;44.624;20.378;2023-05-07T00:38:14;14.09;71.32
69393;SHT31;56582;44.624;20.378;2023-05-07T00:40:40;14.08;71.74
69393;SHT31;56582;44.624;20.378;2023-05-07T00:43:05;14.14;72.09
69393;SHT31;56582;44.624;20.378;2023-05-07T00:45:31;14.05;71.78
69393;SHT31;56582;44.624;20.378;2023-05-07T00:48:01;14.11;72.70
69393;SHT31;56582;44.624;20.378;2023-05-07T00:50:28;14.08;71.90
69393;SHT31;56582;44.624;20.378;2023-05-07T00:52:54;14.17;72.22
69393;SHT31;56582;44.624;20.378;2023-05-07T00:55:20;14.05;72.14
69393;SHT31;56582;44.624;20.378;2023-05-07T00:57:46;14.02;72.94
69393;SHT31;56582;44.624;20.378;2023-05-07T01:00:12;13.98;72.94
69393;SHT31;56582;44.624;20.378;2023-05-07T01:02:38;14.00;73.18
69393;SHT31;56582;44.624;20.378;2023-05-07T01:05:05;13.88;72.87
69393;SHT31;56582;44.624;20.378;2023-05-07T01:07:32;13.88;73.78
69393;SHT31;56582;44.624;20.378;2023-05-07T01:09:58;13.91;72.94
69393;SHT31;56582;44.624;20.378;2023-05-07T01:12:25;13.94;72.10
69393;SHT31;56582;44.624;20.378;2023-05-07T01:14:51;13.94;73.15
69393;SHT31;56582;44.624;20.378;2023-05-07T01:17:17;13.98;72.46
69393;SHT31;56582;44.624;20.378;2023-05-07T01:19:42;13.91;72.80
69393;SHT31;56582;44.624;20.378;2023-05-07T01:22:10;13.95;73.48
69393;SHT31;56582;44.624;20.378;2023-05-07T01:24:37;13.84;72.74
69393;SHT31;56582;44.624;20.378;2023-05-07T01:27:02;13.85;73.37
69393;SHT31;56582;44.624;20.378;2023-05-07T01:29:28;13.81;73.39
69393;SHT31;56582;44.624;20.378;2023-05-07T01:31:55;13.95;72.78
69393;SHT31;56582;44.624;20.378;2023-05-07T01:34:21;13.95;73.50
69393;SHT31;56582;44.624;20.378;2023-05-07T01:36:47;13.88;73.41
69393;SHT31;56582;44.624;20.378;2023-05-07T01:39:14;13.90;73.63
69393;SHT31;56582;44.624;20.378;2023-05-07T01:41:41;13.67;73.68
69393;SHT31;56582;44.624;20.378;2023-05-07T01:44:08;13.71;73.92
69393;SHT31;56582;44.624;20.378;2023-05-07T01:46:35;13.73;73.27
69393;SHT31;56582;44.624;20.378;2023-05-07T01:49:00;13.73;73.90
69393;SHT31;56582;44.624;20.378;2023-05-07T01:51:26;13.78;73.22
69393;SHT31;56582;44.624;20.378;2023-05-07T01:53:52;13.71;73.24
69393;SHT31;56582;44.624;20.378;2023-05-07T01:56:18;13.67;73.95
69393;SHT31;56582;44.624;20.378;2023-05-07T01:58:44;13.73;73.80
69393;SHT31;56582;44.624;20.378;2023-05-07T02:01:12;13.69;73.10
69393;SHT31;56582;44.624;20.378;2023-05-07T02:03:37;13.80;73.41
69393;SHT31;56582;44.624;20.378;2023-05-07T02:06:03;13.77;73.64
69393;SHT31;56582;44.624;20.378;2023-05-07T02:08:28;13.71;73.51
69393;SHT31;56582;44.624;20.378;2023-05-07T02:10:54;13.73;73.65
69393;SHT31;56582;44.624;20.378;2023-05-07T02:13:19;13.75;73.73
69393;SHT31;56582;44.624;20.378;2023-05-07T02:15:45;13.80;74.79
69393;SHT31;56582;44.624;20.378;2023-05-07T02:18:15;13.80;73.84
69393;SHT31;56582;44.624;20.378;2023-05-07T02:20:41;13.80;72.63
69393;SHT31;56582;44.624;20.378;2023-05-07T02:23:06;13.77;72.86
69393;SHT31;56582;44.624;20.378;2023-05-07T02:25:31;13.74;73.31
69393;SHT31;56582;44.624;20.378;2023-05-07T02:27:57;13.74;73.22
69393;SHT31;56582;44.624;20.378;2023-05-07T02:30:22;13.67;73.79
69393;SHT31;56582;44.624;20.378;2023-05-07T02:32:48;13.71;73.80
69393;SHT31;56582;44.624;20.378;2023-05-07T02:35:14;13.70;73.20
69393;SHT31;56582;44.624;20.378;2023-05-07T02:37:39;13.60;74.26
69393;SHT31;56582;44.624;20.378;2023-05-07T02:40:05;13.75;72.64
69393;SHT31;56582;44.624;20.378;2023-05-07T02:42:31;13.57;74.30
69393;SHT31;56582;44.624;20.378;2023-05-07T02:44:56;13.60;73.37
69393;SHT31;56582;44.624;20.378;2023-05-07T02:47:22;13.64;73.37
69393;SHT31;56582;44.624;20.378;2023-05-07T02:49:47;13.69;73.14
69393;SHT31;56582;44.624;20.378;2023-05-07T02:52:13;13.69;73.37
69393;SHT31;56582;44.624;20.378;2023-05-07T02:54:38;13.66;74.04
69393;SHT31;56582;44.624;20.378;2023-05-07T02:57:04;13.67;72.78
69393;SHT31;56582;44.624;20.378;2023-05-07T02:59:29;13.59;73.80
69393;SHT31;56582;44.624;20.378;2023-05-07T03:01:55;13.54;74.17
69393;SHT31;56582;44.624;20.378;2023-05-07T03:04:20;13.66;73.42
69393;SHT31;56582;44.624;20.378;2023-05-07T03:06:46;13.57;74.02
69393;SHT31;56582;44.624;20.378;2023-05-07T03:09:11;13.63;73.28
69393;SHT31;56582;44.624;20.378;2023-05-07T03:11:37;13.53;73.56
69393;SHT31;56582;44.624;20.378;2023-05-07T03:14:02;13.64;73.97
69393;SHT31;56582;44.624;20.378;2023-05-07T03:16:28;13.57;73.38
69393;SHT31;56582;44.624;20.378;2023-05-07T03:18:53;13.47;74.11
69393;SHT31;56582;44.624;20.378;2023-05-07T03:21:19;13.53;73.65
69393;SHT31;56582;44.624;20.378;2023-05-07T03:23:44;13.54;73.68
69393;SHT31;56582;44.624;20.378;2023-05-07T03:26:10;13.56;73.63
69393;SHT31;56582;44.624;20.378;2023-05-07T03:28:35;13.51;73.60
69393;SHT31;56582;44.624;20.378;2023-05-07T03:31:01;13.49;73.83
69393;SHT31;56582;44.624;20.378;2023-05-07T03:33:26;13.46;73.63
69393;SHT31;56582;44.624;20.378;2023-05-07T03:35:53;13.47;73.81
69393;SHT31;56582;44.624;20.378;2023-05-07T03:38:18;13.56;73.77
69393;SHT31;56582;44.624;20.378;2023-05-07T03:40:43;13.49;74.26
69393;SHT31;56582;44.624;20.378;2023-05-07T03:43:09;13.44;74.04
69393;SHT31;56582;44.624;20.378;2023-05-07T03:45:35;13.50;73.54
69393;SHT31;56582;44.624;20.378;2023-05-07T03:48:00;13.50;74.33
69393;SHT31;56582;44.624;20.378;2023-05-07T03:50:26;13.47;74.07
69393;SHT31;56582;44.624;20.378;2023-05-07T03:52:51;13.54;74.67
69393;SHT31;56582;44.624;20.378;2023-05-07T03:55:16;13.40;74.54
69393;SHT31;56582;44.624;20.378;2023-05-07T03:57:42;13.43;74.83
69393;SHT31;56582;44.624;20.378;2023-05-07T04:00:08;13.57;74.27
69393;SHT31;56582;44.624;20.378;2023-05-07T04:02:34;13.54;74.62
69393;SHT31;56582;44.624;20.378;2023-05-07T04:04:59;13.60;74.80
69393;SHT31;56582;44.624;20.378;2023-05-07T04:07:24;13.59;74.97
69393;SHT31;56582;44.624;20.378;2023-05-07T04:09:50;13.70;74.99
69393;SHT31;56582;44.624;20.378;2023-05-07T04:12:15;13.75;74.45
69393;SHT31;56582;44.624;20.378;2023-05-07T04:14:41;13.69;75.14
69393;SHT31;56582;44.624;20.378;2023-05-07T04:17:06;13.81;74.87
69393;SHT31;56582;44.624;20.378;2023-05-07T04:19:35;13.90;74.21
69393;SHT31;56582;44.624;20.378;2023-05-07T04:22:00;13.87;74.56
69393;SHT31;56582;44.624;20.378;2023-05-07T04:24:26;14.42;82.13
69393;SHT31;56582;44.624;20.378;2023-05-07T04:26:51;14.76;80.01
69393;SHT31;56582;44.624;20.378;2023-05-07T04:29:18;14.96;78.07
69393;SHT31;56582;44.624;20.378;2023-05-07T04:31:43;15.15;77.63
69393;SHT31;56582;44.624;20.378;2023-05-07T04:34:10;15.39;75.03
69393;SHT31;56582;44.624;20.378;2023-05-07T04:36:37;15.55;72.68
69393;SHT31;56582;44.624;20.378;2023-05-07T04:39:03;15.59;74.88
69393;SHT31;56582;44.624;20.378;2023-05-07T04:41:29;15.82;76.40
69393;SHT31;56582;44.624;20.378;2023-05-07T04:43:54;16.06;72.92
69393;SHT31;56582;44.624;20.378;2023-05-07T04:46:20;16.17;72.55
69393;SHT31;56582;44.624;20.378;2023-05-07T04:48:46;16.23;72.22
69393;SHT31;56582;44.624;20.378;2023-05-07T04:51:11;16.40;75.67
69393;SHT31;56582;44.624;20.378;2023-05-07T04:53:37;16.45;71.86
69393;SHT31;56582;44.624;20.378;2023-05-07T04:56:03;16.45;72.68
69393;SHT31;56582;44.624;20.378;2023-05-07T04:58:28;16.43;70.25
69393;SHT31;56582;44.624;20.378;2023-05-07T05:00:57;16.50;74.90
69393;SHT31;56582;44.624;20.378;2023-05-07T05:03:23;16.48;71.37
69393;SHT31;56582;44.624;20.378;2023-05-07T05:05:52;16.54;71.54
69393;SHT31;56582;44.624;20.378;2023-05-07T05:08:18;16.58;70.86
69393;SHT31;56582;44.624;20.378;2023-05-07T05:10:44;16.52;72.83
69393;SHT31;56582;44.624;20.378;2023-05-07T05:13:10;16.72;70.84
69393;SHT31;56582;44.624;20.378;2023-05-07T05:15:38;16.96;71.15
69393;SHT31;56582;44.624;20.378;2023-05-07T05:18:03;17.19;70.29
69393;SHT31;56582;44.624;20.378;2023-05-07T05:20:29;17.40;71.40
69393;SHT31;56582;44.624;20.378;2023-05-07T05:22:55;17.40;68.51
69393;SHT31;56582;44.624;20.378;2023-05-07T05:25:20;17.61;68.67
69393;SHT31;56582;44.624;20.378;2023-05-07T05:27:46;17.67;69.40
69393;SHT31;56582;44.624;20.378;2023-05-07T05:30:12;17.82;69.20
69393;SHT31;56582;44.624;20.378;2023-05-07T05:32:38;17.92;67.89
69393;SHT31;56582;44.624;20.378;2023-05-07T05:35:04;18.05;69.29
69393;SHT31;56582;44.624;20.378;2023-05-07T05:37:29;18.16;69.02
69393;SHT31;56582;44.624;20.378;2023-05-07T05:39:56;18.36;67.73
69393;SHT31;56582;44.624;20.378;2023-05-07T05:42:21;18.63;68.94
69393;SHT31;56582;44.624;20.378;2023-05-07T05:44:47;18.71;67.32
69393;SHT31;56582;44.624;20.378;2023-05-07T05:47:13;18.90;67.48
69393;SHT31;56582;44.624;20.378;2023-05-07T05:49:39;18.98;66.13
69393;SHT31;56582;44.624;20.378;2023-05-07T05:52:04;18.98;65.36
69393;SHT31;56582;44.624;20.378;2023-05-07T05:54:30;19.08;65.66
69393;SHT31;56582;44.624;20.378;2023-05-07T05:56:55;19.12;65.04
69393;SHT31;56582;44.624;20.378;2023-05-07T05:59:21;19.51;65.71
69393;SHT31;56582;44.624;20.378;2023-05-07T06:01:46;19.52;64.73
69393;SHT31;56582;44.624;20.378;2023-05-07T06:04:12;19.69;66.41
69393;SHT31;56582;44.624;20.378;2023-05-07T06:06:37;19.89;64.78
69393;SHT31;56582;44.624;20.378;2023-05-07T06:09:03;19.97;64.80
69393;SHT31;56582;44.624;20.378;2023-05-07T06:11:28;20.10;66.20
69393;SHT31;56582;44.624;20.378;2023-05-07T06:13:54;20.20;64.87
69393;SHT31;56582;44.624;20.378;2023-05-07T06:16:19;20.25;64.83
69393;SHT31;56582;44.624;20.378;2023-05-07T06:18:45;20.58;64.11
69393;SHT31;56582;44.624;20.378;2023-05-07T06:21:13;20.52;61.65
69393;SHT31;56582;44.624;20.378;2023-05-07T06:23:38;20.61;66.36
69393;SHT31;56582;44.624;20.378;2023-05-07T06:26:06;20.51;63.78
69393;SHT31;56582;44.624;20.378;2023-05-07T06:28:31;20.58;63.80
69393;SHT31;56582;44.624;20.378;2023-05-07T06:31:21;20.85;62.87
69393;SHT31;56582;44.624;20.378;2023-05-07T06:33:46;20.93;62.67
69393;SHT31;56582;44.624;20.378;2023-05-07T06:36:12;20.95;62.56
69393;SHT31;56582;44.624;20.378;2023-05-07T06:38:38;21.04;62.99
69393;SHT31;56582;44.624;20.378;2023-05-07T06:41:03;20.89;60.03
69393;SHT31;56582;44.624;20.378;2023-05-07T06:43:29;20.95;62.44
69393;SHT31;56582;44.624;20.378;2023-05-07T06:45:54;21.03;60.51
69393;SHT31;56582;44.624;20.378;2023-05-07T06:48:20;21.11;61.50
69393;SHT31;56582;44.624;20.378;2023-05-07T06:50:45;21.00;59.51
69393;SHT31;56582;44.624;20.378;2023-05-07T06:53:11;21.02;58.65
69393;SHT31;56582;44.624;20.378;2023-05-07T06:55:36;21.16;59.64
69393;SHT31;56582;44.624;20.378;2023-05-07T06:58:03;21.26;60.56
69393;SHT31;56582;44.624;20.378;2023-05-07T07:00:29;21.50;59.46
69393;SHT31;56582;44.624;20.378;2023-05-07T07:02:55;21.41;60.31
69393;SHT31;56582;44.624;20.378;2023-05-07T07:05:20;21.60;61.44
69393;SHT31;56582;44.624;20.378;2023-05-07T07:07:46;21.73;60.12
69393;SHT31;56582;44.624;20.378;2023-05-07T07:10:21;21.81;60.47
69393;SHT31;56582;44.624;20.378;2023-05-07T07:12:47;21.98;59.22
69393;SHT31;56582;44.624;20.378;2023-05-07T07:15:13;21.91;58.16
69393;SHT31;56582;44.624;20.378;2023-05-07T07:17:39;21.69;57.76
69393;SHT31;56582;44.624;20.378;2023-05-07T07:20:05;21.87;60.34
69393;SHT31;56582;44.624;20.378;2023-05-07T07:22:30;21.88;57.01
69393;SHT31;56582;44.624;20.378;2023-05-07T07:24:56;21.98;59.18
69393;SHT31;56582;44.624;20.378;2023-05-07T07:27:21;21.94;57.01
69393;SHT31;56582;44.624;20.378;2023-05-07T07:29:47;21.97;59.12
69393;SHT31;56582;44.624;20.378;2023-05-07T07:32:12;21.82;60.41
69393;SHT31;56582;44.624;20.378;2023-05-07T07:34:37;21.95;57.35
69393;SHT31;56582;44.624;20.378;2023-05-07T07:37:03;22.15;59.05
69393;SHT31;56582;44.624;20.378;2023-05-07T07:39:32;22.32;60.54
69393;SHT31;56582;44.624;20.378;2023-05-07T07:41:57;22.16;57.04
69393;SHT31;56582;44.624;20.378;2023-05-07T07:44:23;22.20;57.24
69393;SHT31;56582;44.624;20.378;2023-05-07T07:46:48;22.09;60.45
69393;SHT31;56582;44.624;20.378;2023-05-07T07:49:14;22.16;56.75
69393;SHT31;56582;44.624;20.378;2023-05-07T07:51:39;22.42;58.25
69393;SHT31;56582;44.624;20.378;2023-05-07T07:54:05;22.22;57.06
69393;SHT31;56582;44.624;20.378;2023-05-07T07:56:32;22.10;57.82
69393;SHT31;56582;44.624;20.378;2023-05-07T07:58:58;22.47;58.11
69393;SHT31;56582;44.624;20.378;2023-05-07T08:01:24;22.76;58.30
69393;SHT31;56582;44.624;20.378;2023-05-07T08:03:49;22.80;56.05
69393;SHT31;56582;44.624;20.378;2023-05-07T08:06:15;22.80;55.65
69393;SHT31;56582;44.624;20.378;2023-05-07T08:08:41;22.90;57.55
69393;SHT31;56582;44.624;20.378;2023-05-07T08:11:06;22.93;58.05
69393;SHT31;56582;44.624;20.378;2023-05-07T08:13:32;22.97;56.81
69393;SHT31;56582;44.624;20.378;2023-05-07T08:15:57;23.08;55.76
69393;SHT31;56582;44.624;20.378;2023-05-07T08:18:22;22.81;55.35
69393;SHT31;56582;44.624;20.378;2023-05-07T08:20:50;22.84;55.35
69393;SHT31;56582;44.624;20.378;2023-05-07T08:23:15;23.05;57.36
69393;SHT31;56582;44.624;20.378;2023-05-07T08:25:41;23.31;53.09
69393;SHT31;56582;44.624;20.378;2023-05-07T08:28:08;23.46;55.86
69393;SHT31;56582;44.624;20.378;2023-05-07T08:30:33;23.42;55.90
69393;SHT31;56582;44.624;20.378;2023-05-07T08:32:59;23.48;53.91
69393;SHT31;56582;44.624;20.378;2023-05-07T08:35:25;23.48;56.33
69393;SHT31;56582;44.624;20.378;2023-05-07T08:37:52;23.70;56.32
69393;SHT31;56582;44.624;20.378;2023-05-07T08:40:17;23.69;54.34
69393;SHT31;56582;44.624;20.378;2023-05-07T08:42:44;23.77;55.52
69393;SHT31;56582;44.624;20.378;2023-05-07T08:45:10;23.93;55.92
69393;SHT31;56582;44.624;20.378;2023-05-07T08:47:43;23.96;52.83
69393;SHT31;56582;44.624;20.378;2023-05-07T08:50:10;24.01;56.86
69393;SHT31;56582;44.624;20.378;2023-05-07T08:52:37;24.00;56.03
69393;SHT31;56582;44.624;20.378;2023-05-07T08:55:03;24.06;55.36
69393;SHT31;56582;44.624;20.378;2023-05-07T08:57:28;24.06;54.82
69393;SHT31;56582;44.624;20.378;2023-05-07T08:59:54;24.14;51.73
69393;SHT31;56582;44.624;20.378;2023-05-07T09:02:20;24.31;53.20
69393;SHT31;56582;44.624;20.378;2023-05-07T09:04:45;23.97;52.17
69393;SHT31;56582;44.624;20.378;2023-05-07T09:07:11;24.00;58.19
69393;SHT31;56582;44.624;20.378;2023-05-07T09:09:37;24.17;56.72
69393;SHT31;56582;44.624;20.378;2023-05-07T09:12:03;24.25;52.10
69393;SHT31;56582;44.624;20.378;2023-05-07T09:14:29;24.35;53.97
69393;SHT31;56582;44.624;20.378;2023-05-07T09:16:56;24.47;54.60
69393;SHT31;56582;44.624;20.378;2023-05-07T09:19:25;24.64;56.41
69393;SHT31;56582;44.624;20.378;2023-05-07T09:22:01;24.47;52.03
69393;SHT31;56582;44.624;20.378;2023-05-07T09:24:28;24.51;53.36
69393;SHT31;56582;44.624;20.378;2023-05-07T09:26:57;24.35;55.87
69393;SHT31;56582;44.624;20.378;2023-05-07T09:29:25;24.44;51.91
69393;SHT31;56582;44.624;20.378;2023-05-07T09:31:54;24.01;49.98
69393;SHT31;56582;44.624;20.378;2023-05-07T09:34:19;24.47;52.53
69393;SHT31;56582;44.624;20.378;2023-05-07T09:36:45;24.58;53.41
69393;SHT31;56582;44.624;20.378;2023-05-07T09:39:11;24.69;55.09
69393;SHT31;56582;44.624;20.378;2023-05-07T09:41:48;24.68;54.73
69393;SHT31;56582;44.624;20.378;2023-05-07T09:44:20;24.69;53.11
69393;SHT31;56582;44.624;20.378;2023-05-07T09:46:47;24.35;49.81
69393;SHT31;56582;44.624;20.378;2023-05-07T09:49:22;24.40;52.41
69393;SHT31;56582;44.624;20.378;2023-05-07T09:51:49;24.68;54.95
69393;SHT31;56582;44.624;20.378;2023-05-07T09:54:17;24.85;55.42
69393;SHT31;56582;44.624;20.378;2023-05-07T09:56:45;24.96;49.88
69393;SHT31;56582;44.624;20.378;2023-05-07T09:59:15;24.58;47.37
69393;SHT31;56582;44.624;20.378;2023-05-07T10:01:42;24.51;48.54
69393;SHT31;56582;44.624;20.378;2023-05-07T10:04:10;24.68;53.56
69393;SHT31;56582;44.624;20.378;2023-05-07T10:06:36;24.99;52.17
69393;SHT31;56582;44.624;20.378;2023-05-07T10:09:03;25.03;49.33
69393;SHT31;56582;44.624;20.378;2023-05-07T10:11:35;25.17;51.51
69393;SHT31;56582;44.624;20.378;2023-05-07T10:14:02;25.54;53.97
69393;SHT31;56582;44.624;20.378;2023-05-07T10:16:37;25.38;52.08
69393;SHT31;56582;44.624;20.378;2023-05-07T10:19:08;25.27;47.26
69393;SHT31;56582;44.624;20.378;2023-05-07T10:21:37;25.24;44.91
69393;SHT31;56582;44.624;20.378;2023-05-07T10:24:08;25.40;45.44
69393;SHT31;56582;44.624;20.378;2023-05-07T10:26:42;25.38;48.83
69393;SHT31;56582;44.624;20.378;2023-05-07T10:31:59;25.07;49.40
69393;SHT31;56582;44.624;20.378;2023-05-07T10:34:34;24.86;47.91
69393;SHT31;56582;44.624;20.378;2023-05-07T10:37:01;25.13;45.33
69393;SHT31;56582;44.624;20.378;2023-05-07T10:39:27;24.58;46.54
69393;SHT31;56582;44.624;20.378;2023-05-07T10:41:53;24.54;47.13
69393;SHT31;56582;44.624;20.378;2023-05-07T10:44:28;24.83;48.81
69393;SHT31;56582;44.624;20.378;2023-05-07T10:47:15;24.55;46.72
69393;SHT31;56582;44.624;20.378;2023-05-07T10:54:41;25.05;46.47
69393;SHT31;56582;44.624;20.378;2023-05-07T10:57:34;25.12;47.13
69393;SHT31;56582;44.624;20.378;2023-05-07T11:00:03;25.22;49.00
69393;SHT31;56582;44.624;20.378;2023-05-07T11:05:29;25.57;48.78
69393;SHT31;56582;44.624;20.378;2023-05-07T11:07:58;25.60;48.30
69393;SHT31;56582;44.624;20.378;2023-05-07T11:13:12;25.56;44.80
69393;SHT31;56582;44.624;20.378;2023-05-07T11:15:46;25.60;47.93
69393;SHT31;56582;44.624;20.378;2023-05-07T11:18:13;25.63;47.52
69393;SHT31;56582;44.624;20.378;2023-05-07T11:20:56;25.63;48.29
69393;SHT31;56582;44.624;20.378;2023-05-07T11:26:04;25.80;46.82
69393;SHT31;56582;44.624;20.378;2023-05-07T11:28:31;25.82;44.37
69393;SHT31;56582;44.624;20.378;2023-05-07T11:31:02;25.80;45.04
69393;SHT31;56582;44.624;20.378;2023-05-07T11:33:28;25.85;47.24
69393;SHT31;56582;44.624;20.378;2023-05-07T11:35:54;24.93;46.24
69393;SHT31;56582;44.624;20.378;2023-05-07T11:38:20;24.95;45.80
69393;SHT31;56582;44.624;20.378;2023-05-07T11:40:50;25.34;46.07
69393;SHT31;56582;44.624;20.378;2023-05-07T11:43:16;25.33;43.16
69393;SHT31;56582;44.624;20.378;2023-05-07T11:45:41;24.68;44.19
69393;SHT31;56582;44.624;20.378;2023-05-07T11:48:07;25.03;44.50
69393;SHT31;56582;44.624;20.378;2023-05-07T11:50:32;25.06;44.09
69393;SHT31;56582;44.624;20.378;2023-05-07T11:52:58;25.06;43.54
69393;SHT31;56582;44.624;20.378;2023-05-07T11:55:24;25.22;44.42
69393;SHT31;56582;44.624;20.378;2023-05-07T11:57:51;25.31;46.65
69393;SHT31;56582;44.624;20.378;2023-05-07T12:00:16;25.63;46.03
69393;SHT31;56582;44.624;20.378;2023-05-07T12:02:45;25.80;49.67
69393;SHT31;56582;44.624;20.378;2023-05-07T12:05:10;25.73;47.61
69393;SHT31;56582;44.624;20.378;2023-05-07T12:07:36;25.84;46.23
69393;SHT31;56582;44.624;20.378;2023-05-07T12:10:08;25.73;42.65
69393;SHT31;56582;44.624;20.378;2023-05-07T12:12:40;25.80;42.61
69393;SHT31;56582;44.624;20.378;2023-05-07T12:15:07;25.47;45.87
69393;SHT31;56582;44.624;20.378;2023-05-07T12:17:33;25.27;44.72
69393;SHT31;56582;44.624;20.378;2023-05-07T12:19:58;25.36;47.61
69393;SHT31;56582;44.624;20.378;2023-05-07T12:22:24;25.23;44.63
69393;SHT31;56582;44.624;20.378;2023-05-07T12:24:56;25.19;46.11
69393;SHT31;56582;44.624;20.378;2023-05-07T12:27:22;25.44;48.36
69393;SHT31;56582;44.624;20.378;2023-05-07T12:29:49;25.48;44.78
69393;SHT31;56582;44.624;20.378;2023-05-07T12:32:19;25.40;45.83
69393;SHT31;56582;44.624;20.378;2023-05-07T12:34:46;25.44;48.07
69393;SHT31;56582;44.624;20.378;2023-05-07T12:37:12;25.38;45.07
69393;SHT31;56582;44.624;20.378;2023-05-07T12:39:43;25.30;46.94
69393;SHT31;56582;44.624;20.378;2023-05-07T12:42:15;25.36;44.82
69393;SHT31;56582;44.624;20.378;2023-05-07T12:44:43;25.58;44.95
69393;SHT31;56582;44.624;20.378;2023-05-07T12:47:10;25.71;44.88
69393;SHT31;56582;44.624;20.378;2023-05-07T12:49:39;25.84;47.56
69393;SHT31;56582;44.624;20.378;2023-05-07T12:52:05;26.12;48.17
69393;SHT31;56582;44.624;20.378;2023-05-07T12:54:37;26.01;42.25
69393;SHT31;56582;44.624;20.378;2023-05-07T12:57:07;25.70;46.80
69393;SHT31;56582;44.624;20.378;2023-05-07T12:59:37;25.60;45.44
69393;SHT31;56582;44.624;20.378;2023-05-07T13:02:04;25.09;42.77
69393;SHT31;56582;44.624;20.378;2023-05-07T13:04:30;24.93;42.17
69393;SHT31;56582;44.624;20.378;2023-05-07T13:06:57;25.37;42.19
69393;SHT31;56582;44.624;20.378;2023-05-07T13:09:22;25.13;42.81
69393;SHT31;56582;44.624;20.378;2023-05-07T13:11:48;25.33;44.28
69393;SHT31;56582;44.624;20.378;2023-05-07T13:14:15;25.54;45.36
69393;SHT31;56582;44.624;20.378;2023-05-07T13:16:40;25.70;43.35
69393;SHT31;56582;44.624;20.378;2023-05-07T13:19:06;25.71;44.15
69393;SHT31;56582;44.624;20.378;2023-05-07T13:21:31;25.71;41.66
69393;SHT31;56582;44.624;20.378;2023-05-07T13:23:58;25.95;45.68
69393;SHT31;56582;44.624;20.378;2023-05-07T13:26:24;26.21;43.52
69393;SHT31;56582;44.624;20.378;2023-05-07T13:28:49;26.42;44.55
69393;SHT31;56582;44.624;20.378;2023-05-07T13:31:15;26.05;40.77
69393;SHT31;56582;44.624;20.378;2023-05-07T13:33:40;26.22;40.71
69393;SHT31;56582;44.624;20.378;2023-05-07T13:36:06;26.04;41.53
69393;SHT31;56582;44.624;20.378;2023-05-07T13:38:32;25.98;42.78
69393;SHT31;56582;44.624;20.378;2023-05-07T13:40:57;26.21;43.32
69393;SHT31;56582;44.624;20.378;2023-05-07T13:43:22;26.18;39.71
69393;SHT31;56582;44.624;20.378;2023-05-07T13:45:48;25.57;39.06
69393;SHT31;56582;44.624;20.378;2023-05-07T13:48:14;25.54;41.50
69393;SHT31;56582;44.624;20.378;2023-05-07T13:50:39;25.56;42.17
69393;SHT31;56582;44.624;20.378;2023-05-07T13:53:05;25.75;41.15
69393;SHT31;56582;44.624;20.378;2023-05-07T13:55:30;26.08;41.45
69393;SHT31;56582;44.624;20.378;2023-05-07T13:58:00;25.82;42.94
69393;SHT31;56582;44.624;20.378;2023-05-07T14:00:27;25.94;40.25
69393;SHT31;56582;44.624;20.378;2023-05-07T14:02:53;26.06;45.57
69393;SHT31;56582;44.624;20.378;2023-05-07T14:05:19;26.23;44.45
69393;SHT31;56582;44.624;20.378;2023-05-07T14:07:44;26.09;42.71
69393;SHT31;56582;44.624;20.378;2023-05-07T14:10:10;25.84;44.01
69393;SHT31;56582;44.624;20.378;2023-05-07T14:12:36;25.70;41.74
69393;SHT31;56582;44.624;20.378;2023-05-07T14:15:03;25.82;44.68
69393;SHT31;56582;44.624;20.378;2023-05-07T14:17:28;25.95;43.64
69393;SHT31;56582;44.624;20.378;2023-05-07T14:19:57;25.65;42.67
69393;SHT31;56582;44.624;20.378;2023-05-07T14:22:22;25.51;42.43
69393;SHT31;56582;44.624;20.378;2023-05-07T14:24:49;25.63;41.55
69393;SHT31;56582;44.624;20.378;2023-05-07T14:27:15;25.68;40.96
69393;SHT31;56582;44.624;20.378;2023-05-07T14:29:40;25.24;40.93
69393;SHT31;56582;44.624;20.378;2023-05-07T14:32:06;25.15;41.63
69393;SHT31;56582;44.624;20.378;2023-05-07T14:34:31;24.80;40.69
69393;SHT31;56582;44.624;20.378;2023-05-07T14:36:58;24.89;41.32
69393;SHT31;56582;44.624;20.378;2023-05-07T14:39:30;25.37;43.77
69393;SHT31;56582;44.624;20.378;2023-05-07T14:41:59;25.47;41.73
69393;SHT31;56582;44.624;20.378;2023-05-07T14:44:25;25.65;43.11
69393;SHT31;56582;44.624;20.378;2023-05-07T14:46:50;25.88;41.01
69393;SHT31;56582;44.624;20.378;2023-05-07T14:49:16;25.53;42.72
69393;SHT31;56582;44.624;20.378;2023-05-07T14:51:45;25.24;40.92
69393;SHT31;56582;44.624;20.378;2023-05-07T14:54:16;25.30;42.80
69393;SHT31;56582;44.624;20.378;2023-05-07T14:57:20;25.34;44.51
69393;SHT31;56582;44.624;20.378;2023-05-07T14:59:45;25.24;43.07
69393;SHT31;56582;44.624;20.378;2023-05-07T15:02:12;25.19;42.30
69393;SHT31;56582;44.624;20.378;2023-05-07T15:04:38;25.15;43.28
69393;SHT31;56582;44.624;20.378;2023-05-07T15:07:05;25.43;44.44
69393;SHT31;56582;44.624;20.378;2023-05-07T15:09:36;25.15;43.59
69393;SHT31;56582;44.624;20.378;2023-05-07T15:12:02;25.05;44.26
69393;SHT31;56582;44.624;20.378;2023-05-07T15:14:29;25.09;45.13
69393;SHT31;56582;44.624;20.378;2023-05-07T15:16:54;24.69;43.93
69393;SHT31;56582;44.624;20.378;2023-05-07T15:19:20;24.99;44.63
69393;SHT31;56582;44.624;20.378;2023-05-07T15:21:50;24.90;44.29
69393;SHT31;56582;44.624;20.378;2023-05-07T15:24:15;24.90;44.21
69393;SHT31;56582;44.624;20.378;2023-05-07T15:26:41;25.09;45.96
69393;SHT31;56582;44.624;20.378;2023-05-07T15:29:28;25.22;44.48